createdAt,value
2018-03-20T00:02:23.800Z,101939.38
2018-03-20T00:04:50.207Z,101937.52
2018-03-20T00:07:16.595Z,101917.16
2018-03-20T00:09:43.924Z,101933.08
2018-03-20T00:12:10.328Z,101931.67
2018-03-20T00:14:36.729Z,101936.31
2018-03-20T00:17:04.263Z,101941.88
2018-03-20T00:19:30.658Z,101942.42
2018-03-20T00:21:57.090Z,101946.55
2018-03-20T00:24:23.691Z,101953.45
2018-03-20T00:26:50.619Z,101948.42
2018-03-20T00:29:17.476Z,101951.12
2018-03-20T00:31:43.931Z,101954.86
2018-03-20T00:34:10.545Z,101951.09
2018-03-20T00:36:38.116Z,101947.85
2018-03-20T00:39:05.066Z,101947.37
2018-03-20T00:41:31.940Z,101955.59
2018-03-20T00:43:58.840Z,101962.23
2018-03-20T00:46:25.240Z,101963.42
2018-03-20T00:48:52.386Z,101954.70
2018-03-20T00:51:19.005Z,101962.63
2018-03-20T00:53:45.395Z,101961.12
2018-03-20T00:56:17.711Z,101956.14
2018-03-20T00:58:44.237Z,101953.73
2018-03-20T01:01:10.634Z,101949.58
2018-03-20T01:03:37.027Z,101946.52
2018-03-20T01:06:03.589Z,101947.90
2018-03-20T01:08:29.975Z,101954.70
2018-03-20T01:10:56.373Z,101951.14
2018-03-20T01:13:22.995Z,101953.00
2018-03-20T01:15:49.393Z,101953.89
2018-03-20T01:18:15.807Z,101958.38
2018-03-20T01:20:43.540Z,101957.23
2018-03-20T01:23:09.937Z,101962.19
2018-03-20T01:25:36.349Z,101962.87
2018-03-20T01:28:04.285Z,101953.10
2018-03-20T01:30:30.682Z,101954.59
2018-03-20T01:32:57.091Z,101961.69
2018-03-20T01:35:24.428Z,101958.95
2018-03-20T01:37:50.847Z,101959.93
2018-03-20T01:40:17.746Z,101955.22
2018-03-20T01:42:44.875Z,101955.32
2018-03-20T01:45:11.245Z,101955.87
2018-03-20T01:47:37.833Z,101947.33
2018-03-20T01:50:04.244Z,101943.41
2018-03-20T01:52:30.638Z,101943.22
2018-03-20T01:54:57.121Z,101943.81
2018-03-20T01:57:23.520Z,101938.52
2018-03-20T01:59:50.665Z,101921.62
2018-03-20T02:02:17.261Z,101923.42
2018-03-20T02:04:43.660Z,101940.88
2018-03-20T02:07:10.817Z,101936.32
2018-03-20T02:09:38.139Z,101928.83
2018-03-20T02:12:05.367Z,101932.75
2018-03-20T02:14:32.335Z,101930.69
2018-03-20T02:16:59.516Z,101921.05
2018-03-20T02:19:25.938Z,101923.88
2018-03-20T02:21:52.367Z,101928.05
2018-03-20T02:24:18.892Z,101921.88
2018-03-20T02:26:45.867Z,101920.44
2018-03-20T02:29:12.254Z,101926.28
2018-03-20T02:31:39.396Z,101924.58
2018-03-20T02:34:06.729Z,101928.69
2018-03-20T02:36:33.669Z,101926.48
2018-03-20T02:39:00.057Z,101932.33
2018-03-20T02:41:26.616Z,101924.13
2018-03-20T02:43:53.071Z,101932.33
2018-03-20T02:46:20.940Z,101930.31
2018-03-20T02:48:47.334Z,101928.98
2018-03-20T02:51:14.502Z,101917.70
2018-03-20T02:53:41.789Z,101919.14
2018-03-20T02:56:09.178Z,101922.23
2018-03-20T02:58:36.270Z,101908.07
2018-03-20T03:01:03.583Z,101910.52
2018-03-20T03:03:29.992Z,101918.07
2018-03-20T03:05:56.411Z,101913.27
2018-03-20T03:08:23.053Z,101914.30
2018-03-20T03:10:49.468Z,101910.97
2018-03-20T03:13:15.855Z,101907.01
2018-03-20T03:15:42.518Z,101907.87
2018-03-20T03:18:08.958Z,101908.28
2018-03-20T03:20:35.561Z,101909.36
2018-03-20T03:23:02.463Z,101907.16
2018-03-20T03:25:28.860Z,101901.95
2018-03-20T03:27:55.740Z,101903.77
2018-03-20T03:30:22.140Z,101903.33
2018-03-20T03:32:49.147Z,101902.88
2018-03-20T03:35:15.549Z,101899.45
2018-03-20T03:37:41.989Z,101894.41
2018-03-20T03:40:08.559Z,101897.84
2018-03-20T03:42:35.129Z,101896.73
2018-03-20T03:45:02.292Z,101891.11
2018-03-20T03:47:28.908Z,101893.38
2018-03-20T03:49:55.320Z,101886.42
2018-03-20T03:52:21.773Z,101883.97
2018-03-20T03:54:48.415Z,101880.08
2018-03-20T03:57:14.827Z,101878.68
2018-03-20T03:59:41.219Z,101873.52
2018-03-20T04:02:08.640Z,101879.34
2018-03-20T04:04:35.075Z,101881.81
2018-03-20T04:07:01.474Z,101882.33
2018-03-20T04:09:28.011Z,101868.36
2018-03-20T04:11:54.460Z,101873.16
2018-03-20T04:14:20.856Z,101881.70
2018-03-20T04:16:47.500Z,101871.74
2018-03-20T04:19:14.105Z,101869.79
2018-03-20T04:21:40.500Z,101869.73
2018-03-20T04:24:07.819Z,101866.78
2018-03-20T04:26:34.275Z,101855.14
2018-03-20T04:29:00.660Z,101863.63
2018-03-20T04:31:27.458Z,101860.31
2018-03-20T04:33:54.944Z,101865.08
2018-03-20T04:36:22.110Z,101862.64
2018-03-20T04:38:49.362Z,101864.46
2018-03-20T04:41:17.005Z,101857.94
2018-03-20T04:43:43.924Z,101854.47
2018-03-20T04:46:11.098Z,101856.95
2018-03-20T04:48:37.485Z,101866.48
2018-03-20T04:51:04.025Z,101863.13
2018-03-20T04:53:30.546Z,101859.12
2018-03-20T04:55:58.203Z,101864.91
2018-03-20T04:58:25.370Z,101875.42
2018-03-20T05:00:51.772Z,101879.11
2018-03-20T05:03:18.319Z,101853.53
2018-03-20T05:05:44.736Z,101885.47
2018-03-20T05:08:11.127Z,101886.83
2018-03-20T05:10:38.453Z,101889.17
2018-03-20T05:13:04.840Z,101885.20
2018-03-20T05:15:31.944Z,101884.69
2018-03-20T05:17:58.384Z,101881.97
2018-03-20T05:20:31.379Z,101884.48
2018-03-20T05:23:03.880Z,101886.95
2018-03-20T05:25:32.220Z,101886.55
2018-03-20T05:27:59.164Z,101897.17
2018-03-20T05:30:25.978Z,101893.25
2018-03-20T05:32:52.871Z,101894.25
2018-03-20T05:35:19.830Z,101899.55
2018-03-20T05:37:46.318Z,101904.28
2018-03-20T05:40:13.120Z,101909.36
2018-03-20T05:42:39.520Z,101903.54
2018-03-20T05:45:06.045Z,101911.41
2018-03-20T05:47:38.680Z,101903.20
2018-03-20T05:53:08.523Z,101915.69
2018-03-20T05:55:35.692Z,101915.61
2018-03-20T05:58:02.963Z,101921.74
2018-03-20T06:00:30.166Z,101923.92
2018-03-20T06:02:56.792Z,101931.20
2018-03-20T06:05:24.175Z,101927.53
2018-03-20T06:07:50.621Z,101931.91
2018-03-20T06:10:17.322Z,101937.41
2018-03-20T06:12:44.555Z,101937.69
2018-03-20T06:15:11.021Z,101947.23
2018-03-20T06:17:37.618Z,101950.55
2018-03-20T06:20:05.045Z,101952.05
2018-03-20T06:22:31.896Z,101959.38
2018-03-20T06:24:58.272Z,101961.41
2018-03-20T06:27:25.406Z,101974.13
2018-03-20T06:29:52.176Z,101983.59
2018-03-20T06:32:19.724Z,101992.28
2018-03-20T06:34:46.818Z,101992.27
2018-03-20T06:37:13.195Z,101990.98
2018-03-20T06:39:39.829Z,102005.36
2018-03-20T06:42:06.233Z,101998.15
2018-03-20T06:44:32.647Z,102008.99
2018-03-20T06:46:59.882Z,102017.42
2018-03-20T06:49:26.277Z,102015.25
2018-03-20T06:51:52.676Z,102016.87
2018-03-20T06:54:20.468Z,102018.52
2018-03-20T06:56:47.473Z,102025.03
2018-03-20T06:59:13.863Z,102023.91
2018-03-20T07:01:40.267Z,102027.04
2018-03-20T07:04:07.691Z,102029.70
2018-03-20T07:06:34.091Z,102032.72
2018-03-20T07:09:00.484Z,102033.22
2018-03-20T07:11:27.117Z,102033.39
2018-03-20T07:13:53.523Z,102033.87
2018-03-20T07:16:19.906Z,102031.50
2018-03-20T07:18:47.193Z,102034.22
2018-03-20T07:21:13.588Z,102038.06
2018-03-20T07:23:40.189Z,102040.76
2018-03-20T07:26:06.767Z,102044.45
2018-03-20T07:28:33.201Z,102045.92
2018-03-20T07:31:00.172Z,102042.23
2018-03-20T07:33:27.193Z,102052.50
2018-03-20T07:35:53.576Z,102050.94
2018-03-20T07:38:21.321Z,102060.59
2018-03-20T07:40:48.286Z,102059.12
2018-03-20T07:43:15.324Z,102062.42
2018-03-20T07:45:42.467Z,102075.31
2018-03-20T07:48:09.421Z,102078.83
2018-03-20T07:50:40.127Z,102077.73
2018-03-20T07:53:07.028Z,102083.41
2018-03-20T07:55:33.432Z,102093.44
2018-03-20T07:57:59.826Z,102094.53
2018-03-20T08:00:27.456Z,102094.42
2018-03-20T08:02:54.410Z,102096.54
2018-03-20T08:05:21.015Z,102102.97
2018-03-20T08:07:47.895Z,102113.66
2018-03-20T08:10:14.763Z,102110.81
2018-03-20T08:12:41.216Z,102122.95
2018-03-20T08:15:09.036Z,102111.33
2018-03-20T08:17:36.100Z,102118.95
2018-03-20T08:20:02.913Z,102133.28
2018-03-20T08:22:29.732Z,102125.82
2018-03-20T08:24:57.040Z,102125.44
2018-03-20T08:27:23.831Z,102130.17
2018-03-20T08:29:50.963Z,102134.31
2018-03-20T08:32:17.815Z,102146.27
2018-03-20T08:34:45.687Z,102148.30
2018-03-20T08:37:12.631Z,102152.41
2018-03-20T08:39:39.013Z,102157.55
2018-03-20T08:42:05.422Z,102162.91
2018-03-20T08:44:31.932Z,102171.61
2018-03-20T08:46:58.868Z,102173.55
2018-03-20T08:49:25.689Z,102175.87
2018-03-20T08:51:53.717Z,102180.95
2018-03-20T08:54:21.156Z,102182.74
2018-03-20T08:56:47.561Z,102192.16
2018-03-20T08:59:13.944Z,102193.43
2018-03-20T09:01:41.313Z,102202.46
2018-03-20T09:04:07.697Z,102207.23
2018-03-20T09:06:35.392Z,102215.22
2018-03-20T09:09:02.379Z,102220.73
2018-03-20T09:11:28.785Z,102228.17
2018-03-20T09:13:55.164Z,102236.16
2018-03-20T09:16:22.026Z,102231.11
2018-03-20T09:18:49.170Z,102229.47
2018-03-20T09:21:16.035Z,102241.52
2018-03-20T09:23:43.153Z,102244.38
2018-03-20T09:26:10.108Z,102246.84
2018-03-20T09:28:37.153Z,102249.36
2018-03-20T09:31:03.555Z,102247.53
2018-03-20T09:33:30.371Z,102253.08
2018-03-20T09:35:58.626Z,102257.98
2018-03-20T09:38:25.574Z,102255.09
2018-03-20T09:40:51.947Z,102266.20
2018-03-20T09:43:19.082Z,102262.27
2018-03-20T09:45:45.612Z,102269.92
2018-03-20T09:48:12.553Z,102273.32
2018-03-20T09:50:39.403Z,102274.59
2018-03-20T09:53:06.348Z,102277.94
2018-03-20T09:55:32.736Z,102279.37
2018-03-20T09:57:59.837Z,102284.20
2018-03-20T10:00:26.894Z,102282.88
2018-03-20T10:02:53.843Z,102292.55
2018-03-20T10:05:20.249Z,102290.77
2018-03-20T10:07:47.134Z,102301.44
2018-03-20T10:10:13.525Z,102302.62
2018-03-20T10:12:39.932Z,102306.05
2018-03-20T10:15:07.272Z,102315.04
2018-03-20T10:17:33.671Z,102320.89
2018-03-20T10:20:00.761Z,102323.48
2018-03-20T10:22:27.908Z,102328.30
2018-03-20T10:24:54.857Z,102333.31
2018-03-20T10:27:21.922Z,102328.06
2018-03-20T10:29:49.638Z,102331.30
2018-03-20T10:32:16.803Z,102335.92
2018-03-20T10:34:44.406Z,102338.77
2018-03-20T10:37:11.472Z,102330.08
2018-03-20T10:39:37.877Z,102337.73
2018-03-20T10:42:04.849Z,102332.33
2018-03-20T10:44:31.293Z,102344.38
2018-03-20T10:46:58.182Z,102345.99
2018-03-20T10:49:24.604Z,102350.45
2018-03-20T10:51:52.246Z,102348.35
2018-03-20T10:54:19.843Z,102347.91
2018-03-20T10:56:47.585Z,102349.13
2018-03-20T10:59:14.418Z,102357.88
2018-03-20T11:01:45.262Z,102356.94
2018-03-20T11:04:12.140Z,102362.93
2018-03-20T11:06:39.705Z,102380.16
2018-03-20T11:09:07.865Z,102368.48
2018-03-20T11:11:35.896Z,102379.18
2018-03-20T11:14:02.784Z,102377.06
2018-03-20T11:16:29.203Z,102381.25
2018-03-20T11:18:55.940Z,102379.58
2018-03-20T11:21:22.805Z,102388.52
2018-03-20T11:23:49.684Z,102388.80
2018-03-20T11:26:17.534Z,102389.26
2018-03-20T11:28:43.967Z,102387.88
2018-03-20T11:31:10.959Z,102388.37
2018-03-20T11:33:37.796Z,102398.87
2018-03-20T11:36:04.978Z,102399.55
2018-03-20T11:38:31.803Z,102409.14
2018-03-20T11:40:58.940Z,102408.69
2018-03-20T11:43:25.868Z,102415.91
2018-03-20T11:45:52.940Z,102417.38
2018-03-20T11:48:19.665Z,102421.41
2018-03-20T11:50:47.321Z,102426.27
2018-03-20T11:53:14.805Z,102431.37
2018-03-20T11:55:41.218Z,102438.48
2018-03-20T11:58:08.136Z,102433.52
2018-03-20T12:00:34.576Z,102445.06
2018-03-20T12:03:01.573Z,102449.39
2018-03-20T12:05:28.432Z,102450.09
2018-03-20T12:07:55.388Z,102451.66
2018-03-20T12:10:21.800Z,102452.38
2018-03-20T12:12:48.764Z,102459.55
2018-03-20T12:15:15.434Z,102456.36
2018-03-20T12:17:43.014Z,102450.45
2018-03-20T12:20:10.017Z,102456.21
2018-03-20T12:22:36.442Z,102455.67
2018-03-20T12:25:02.882Z,102449.23
2018-03-20T12:27:29.679Z,102460.52
2018-03-20T12:29:57.412Z,102471.91
2018-03-20T12:32:23.812Z,102463.86
2018-03-20T12:34:50.704Z,102467.09
2018-03-20T12:37:17.662Z,102473.52
2018-03-20T12:39:44.564Z,102463.89
2018-03-20T12:42:11.706Z,102473.22
2018-03-20T12:44:39.538Z,102478.47
2018-03-20T12:47:06.890Z,102473.03
2018-03-20T12:49:33.288Z,102468.79
2018-03-20T12:52:00.263Z,102480.58
2018-03-20T12:54:27.104Z,102476.80
2018-03-20T12:56:53.969Z,102472.42
2018-03-20T12:59:20.353Z,102482.62
2018-03-20T13:01:47.197Z,102473.01
2018-03-20T13:04:14.820Z,102487.14
2018-03-20T13:06:41.784Z,102479.59
2018-03-20T13:09:08.284Z,102483.16
2018-03-20T13:11:35.106Z,102481.48
2018-03-20T13:14:01.530Z,102493.51
2018-03-20T13:16:29.273Z,102494.56
2018-03-20T13:18:55.677Z,102499.47
2018-03-20T13:21:22.567Z,102500.53
2018-03-20T13:23:49.620Z,102506.19
2018-03-20T13:26:16.256Z,102503.19
2018-03-20T13:28:43.209Z,102500.75
2018-03-20T13:31:10.965Z,102504.81
2018-03-20T13:33:38.336Z,102506.23
2018-03-20T13:36:05.334Z,102503.94
2018-03-20T13:38:32.236Z,102505.88
2018-03-20T13:40:59.189Z,102505.84
2018-03-20T13:43:26.254Z,102507.60
2018-03-20T13:45:52.648Z,102506.02
2018-03-20T13:48:19.560Z,102499.88
2018-03-20T13:50:47.171Z,102508.37
2018-03-20T13:53:19.665Z,102513.34
2018-03-20T13:55:46.509Z,102515.64
2018-03-20T13:58:13.329Z,102510.25
2018-03-20T14:00:40.144Z,102511.54
2018-03-20T14:03:07.512Z,102518.59
2018-03-20T14:05:34.410Z,102523.83
2018-03-20T14:08:01.297Z,102516.17
2018-03-20T14:10:28.497Z,102523.08
2018-03-20T14:12:56.500Z,102522.70
2018-03-20T14:15:23.655Z,102529.30
2018-03-20T14:17:50.069Z,102523.80
2018-03-20T14:20:16.688Z,102520.50
2018-03-20T14:22:43.273Z,102524.01
2018-03-20T14:25:09.697Z,102525.20
2018-03-20T14:27:36.468Z,102530.78
2018-03-20T14:30:03.608Z,102538.75
2018-03-20T14:32:30.494Z,102540.98
2018-03-20T14:34:58.063Z,102545.52
2018-03-20T14:37:25.624Z,102549.44
2018-03-20T14:39:52.774Z,102550.05
2018-03-20T14:42:19.920Z,102551.42
2018-03-20T14:44:47.566Z,102551.03
2018-03-20T14:47:15.201Z,102556.97
2018-03-20T14:49:42.704Z,102561.72
2018-03-20T14:52:09.757Z,102572.14
2018-03-20T14:54:37.085Z,102566.70
2018-03-20T14:57:03.623Z,102575.52
2018-03-20T14:59:30.064Z,102580.99
2018-03-20T15:01:56.519Z,102585.91
2018-03-20T15:04:23.278Z,102586.02
2018-03-20T15:06:50.443Z,102590.89
2018-03-20T15:09:16.886Z,102596.48
2018-03-20T15:11:43.798Z,102595.41
2018-03-20T15:14:10.876Z,102603.59
2018-03-20T15:16:37.478Z,102605.14
2018-03-20T15:19:04.178Z,102594.67
2018-03-20T15:21:31.477Z,102598.92
2018-03-20T15:23:58.907Z,102602.80
2018-03-20T15:26:25.854Z,102601.64
2018-03-20T15:28:53.579Z,102603.36
2018-03-20T15:31:20.556Z,102617.38
2018-03-20T15:33:47.408Z,102614.13
2018-03-20T15:36:14.656Z,102608.07
2018-03-20T15:38:41.673Z,102620.75
2018-03-20T15:41:09.700Z,102611.49
2018-03-20T15:43:36.571Z,102616.98
2018-03-20T15:46:03.022Z,102613.83
2018-03-20T15:48:30.008Z,102619.44
2018-03-20T15:50:57.334Z,102629.69
2018-03-20T15:53:24.813Z,102621.91
2018-03-20T15:55:52.465Z,102627.54
2018-03-20T15:58:19.577Z,102627.95
2018-03-20T16:00:47.020Z,102633.24
2018-03-20T16:03:14.697Z,102635.16
2018-03-20T16:05:41.895Z,102644.14
2018-03-20T16:08:08.970Z,102637.09
2018-03-20T16:10:36.459Z,102644.46
2018-03-20T16:13:03.470Z,102647.92
2018-03-20T16:15:29.873Z,102643.98
2018-03-20T16:17:58.169Z,102649.84
2018-03-20T16:20:25.181Z,102651.89
2018-03-20T16:22:52.202Z,102653.08
2018-03-20T16:25:19.265Z,102649.47
2018-03-20T16:27:46.401Z,102660.52
2018-03-20T16:30:14.112Z,102673.45
2018-03-20T16:32:40.526Z,102666.16
2018-03-20T16:35:07.650Z,102663.27
2018-03-20T16:37:35.165Z,102678.09
2018-03-20T16:40:01.807Z,102680.47
2018-03-20T16:42:28.401Z,102687.34
2018-03-20T16:44:56.092Z,102689.39
2018-03-20T16:47:22.803Z,102695.30
2018-03-20T16:49:49.858Z,102701.73
2018-03-20T16:52:17.244Z,102706.57
2018-03-20T16:54:44.432Z,102714.23
2018-03-20T16:57:11.543Z,102715.38
2018-03-20T16:59:37.980Z,102722.42
2018-03-20T17:02:06.048Z,102723.08
2018-03-20T17:04:32.453Z,102729.75
2018-03-20T17:06:59.219Z,102723.41
2018-03-20T17:09:27.076Z,102732.86
2018-03-20T17:11:53.675Z,102736.81
2018-03-20T17:14:20.279Z,102742.28
2018-03-20T17:16:46.879Z,102741.80
2018-03-20T17:19:13.288Z,102747.98
2018-03-20T17:21:39.691Z,102748.93
2018-03-20T17:24:07.256Z,102758.25
2018-03-20T17:26:34.426Z,102756.50
2018-03-20T17:29:01.427Z,102756.84
2018-03-20T17:31:28.493Z,102759.82
2018-03-20T17:33:55.434Z,102764.52
2018-03-20T17:36:22.391Z,102762.42
2018-03-20T17:38:49.332Z,102763.80
2018-03-20T17:41:16.041Z,102757.72
2018-03-20T17:43:42.440Z,102759.00
2018-03-20T17:46:09.813Z,102764.77
2018-03-20T17:48:37.340Z,102772.98
2018-03-20T17:51:04.342Z,102781.05
2018-03-20T17:53:31.396Z,102775.70
2018-03-20T17:55:58.797Z,102779.75
2018-03-20T17:58:26.055Z,102780.89
2018-03-20T18:00:53.149Z,102781.23
2018-03-20T18:03:20.777Z,102782.92
2018-03-20T18:05:47.224Z,102793.59
2018-03-20T18:08:14.171Z,102795.69
2018-03-20T18:10:41.366Z,102797.58
2018-03-20T18:13:09.114Z,102802.30
2018-03-20T18:15:36.051Z,102810.04
2018-03-20T18:18:03.092Z,102803.32
2018-03-20T18:20:29.939Z,102805.15
2018-03-20T18:22:57.071Z,102815.20
2018-03-20T18:25:24.139Z,102809.53
2018-03-20T18:27:50.989Z,102808.88
2018-03-20T18:30:17.444Z,102816.81
2018-03-20T18:32:44.309Z,102811.59
2018-03-20T18:35:10.847Z,102819.41
2018-03-20T18:37:37.314Z,102820.06
2018-03-20T18:40:04.018Z,102829.24
2018-03-20T18:42:30.469Z,102833.02
2018-03-20T18:44:56.899Z,102833.54
2018-03-20T18:47:23.667Z,102843.20
2018-03-20T18:49:50.949Z,102843.37
2018-03-20T18:52:17.457Z,102845.58
2018-03-20T18:54:44.403Z,102844.70
2018-03-20T18:57:11.961Z,102849.48
2018-03-20T18:59:39.060Z,102853.64
2018-03-20T19:02:06.241Z,102855.30
2018-03-20T19:04:33.357Z,102861.87
2018-03-20T19:06:59.809Z,102857.53
2018-03-20T19:09:26.800Z,102860.47
2018-03-20T19:11:53.443Z,102865.00
2018-03-20T19:14:19.847Z,102858.05
2018-03-20T19:16:46.425Z,102866.77
2018-03-20T19:19:13.002Z,102868.73
2018-03-20T19:21:41.049Z,102878.19
2018-03-20T19:24:07.689Z,102879.41
2018-03-20T19:26:34.220Z,102878.08
2018-03-20T19:29:01.128Z,102887.06
2018-03-20T19:31:27.534Z,102891.34
2018-03-20T19:33:54.056Z,102888.33
2018-03-20T19:36:21.333Z,102893.00
2018-03-20T19:38:48.092Z,102898.64
2018-03-20T19:41:15.427Z,102902.80
2018-03-20T19:43:42.620Z,102896.83
2018-03-20T19:46:09.643Z,102905.73
2018-03-20T19:48:36.971Z,102906.33
2018-03-20T19:51:03.737Z,102911.75
2018-03-20T19:53:30.447Z,102923.47
2018-03-20T19:55:57.321Z,102918.11
2018-03-20T19:58:24.914Z,102926.58
2018-03-20T20:00:51.944Z,102927.58
2018-03-20T20:03:19.513Z,102931.08
2018-03-20T20:05:46.871Z,102928.70
2018-03-20T20:08:13.713Z,102928.45
2018-03-20T20:10:40.792Z,102937.14
2018-03-20T20:13:08.121Z,102938.65
2018-03-20T20:15:35.095Z,102949.88
2018-03-20T20:18:02.421Z,102950.83
2018-03-20T20:20:29.808Z,102954.75
2018-03-20T20:22:56.448Z,102962.35
2018-03-20T20:25:23.878Z,102968.13
2018-03-20T20:27:50.732Z,102971.02
2018-03-20T20:30:17.796Z,102973.84
2018-03-20T20:32:44.991Z,102971.64
2018-03-20T20:35:12.646Z,102973.38
2018-03-20T20:37:39.921Z,102973.19
2018-03-20T20:40:07.068Z,102977.55
2018-03-20T20:42:34.254Z,102974.48
2018-03-20T20:45:00.957Z,102978.09
2018-03-20T20:47:28.205Z,102982.47
2018-03-20T20:49:54.722Z,102991.14
2018-03-20T20:52:21.895Z,102991.44
2018-03-20T20:54:48.732Z,102994.11
2018-03-20T20:57:15.810Z,102994.94
2018-03-20T20:59:43.202Z,102990.97
2018-03-20T21:02:10.989Z,102996.55
2018-03-20T21:04:37.466Z,102995.83
2018-03-20T21:07:04.600Z,102994.94
2018-03-20T21:09:31.667Z,102998.78
2018-03-20T21:11:58.778Z,102996.45
2018-03-20T21:14:26.145Z,103001.86
2018-03-20T21:16:53.259Z,102995.09
2018-03-20T21:19:20.915Z,102994.98
2018-03-20T21:21:47.616Z,102990.80
2018-03-20T21:24:14.580Z,102996.30
2018-03-20T21:26:41.755Z,102993.81
2018-03-20T21:29:08.820Z,103002.01
2018-03-20T21:31:35.249Z,102994.97
2018-03-20T21:34:02.202Z,103001.34
2018-03-20T21:36:28.816Z,103007.81
2018-03-20T21:38:55.305Z,103006.44
2018-03-20T21:41:22.705Z,103010.41
2018-03-20T21:43:49.124Z,103008.58
2018-03-20T21:46:15.528Z,103010.66
2018-03-20T21:48:42.469Z,103014.20
2018-03-20T21:51:08.912Z,103014.84
2018-03-20T21:53:35.316Z,103014.50
2018-03-20T21:56:02.194Z,103017.89
2018-03-20T21:58:29.093Z,103016.41
2018-03-20T22:00:55.658Z,103012.61
2018-03-20T22:03:22.438Z,103019.74
2018-03-20T22:05:49.907Z,103021.21
2018-03-20T22:08:16.600Z,103018.25
2018-03-20T22:10:43.385Z,103022.13
2018-03-20T22:13:10.442Z,103014.38
2018-03-20T22:15:36.988Z,103025.84
2018-03-20T22:18:04.153Z,103020.66
2018-03-20T22:20:31.923Z,103028.05
2018-03-20T22:22:58.347Z,103028.05
2018-03-20T22:25:24.755Z,103030.69
2018-03-20T22:27:52.095Z,103041.11
2018-03-20T22:30:19.238Z,103035.92
2018-03-20T22:32:45.653Z,103036.86
2018-03-20T22:35:12.984Z,103042.68
2018-03-20T22:37:39.402Z,103042.09
2018-03-20T22:40:06.182Z,103044.02
2018-03-20T22:42:33.161Z,103040.66
2018-03-20T22:45:00.370Z,103049.52
2018-03-20T22:47:26.981Z,103048.73
2018-03-20T22:49:53.993Z,103045.64
2018-03-20T22:52:21.299Z,103053.44
2018-03-20T22:54:48.199Z,103055.56
2018-03-20T22:57:15.246Z,103054.95
2018-03-20T22:59:41.814Z,103053.52
2018-03-20T23:02:08.965Z,103063.18
2018-03-20T23:04:36.288Z,103062.88
2018-03-20T23:07:02.710Z,103068.11
2018-03-20T23:09:29.431Z,103071.56
2018-03-20T23:11:56.529Z,103077.66
2018-03-20T23:14:23.104Z,103065.53
2018-03-20T23:16:50.237Z,103069.61
2018-03-20T23:19:16.979Z,103071.20
2018-03-20T23:21:43.906Z,103072.44
2018-03-20T23:24:10.709Z,103076.83
2018-03-20T23:26:38.034Z,103078.28
2018-03-20T23:29:04.657Z,103078.09
2018-03-20T23:31:31.622Z,103078.13
2018-03-20T23:33:58.709Z,103075.16
2018-03-20T23:36:25.850Z,103073.34
2018-03-20T23:38:52.404Z,103071.43
2018-03-20T23:41:19.727Z,103069.22
2018-03-20T23:43:46.307Z,103068.91
2018-03-20T23:46:13.211Z,103067.07
2018-03-20T23:48:40.064Z,103063.11
2018-03-20T23:51:06.905Z,103064.61
2018-03-20T23:53:33.913Z,103061.77
2018-03-20T23:56:01.164Z,103064.06
2018-03-20T23:58:28.304Z,103069.14
